| time (UTC) | temp F | wind direction | speed MPH | gust MPH | rain 1hr in | rain 24hr in | rain mn in | humidity % | barometer mb |
| 20260503185207 | 63 | 69 | 1.0 | 3.0 | 0.00 | 0.00 | 0.00 | 22 | 1019.5 |
| 20260503184701 | 63 | 184 | 1.0 | 3.0 | 0.00 | 0.00 | 0.00 | 21 | 1019.6 |
| 20260503184201 | 63 | 219 | 1.0 | 4.0 | 0.00 | 0.00 | 0.00 | 22 | 1019.6 |
| 20260503183659 | 63 | 169 | 1.0 | 4.0 | 0.00 | 0.00 | 0.00 | 19 | 1019.5 |
| 20260503183157 | 63 | 182 | 2.0 | 7.0 | 0.00 | 0.00 | 0.00 | 19 | 1019.6 |
| 20260503182657 | 63 | 174 | 2.0 | 7.0 | 0.00 | 0.00 | 0.00 | 22 | 1019.6 |
| 20260503182157 | 64 | 99 | 1.0 | 4.0 | 0.00 | 0.00 | 0.00 | 22 | 1019.7 |
| 20260503181656 | 64 | 161 | 1.0 | 4.0 | 0.00 | 0.00 | 0.00 | 21 | 1019.8 |
| 20260503181157 | 64 | 213 | 1.0 | 3.0 | 0.00 | 0.00 | 0.00 | 19 | 1019.9 |
| 20260503180654 | 64 | 229 | 1.0 | 6.0 | 0.00 | 0.00 | 0.00 | 21 | 1020.0 |
| 20260503180155 | 64 | 234 | 1.0 | 6.0 | 0.00 | 0.00 | 0.00 | 24 | 1020.0 |
| 20260503175654 | 63 | 69 | 1.0 | 6.0 | 0.00 | 0.00 | 0.00 | 21 | 1019.9 |
| 20260503175153 | 63 | 64 | 2.0 | 6.0 | 0.00 | 0.00 | 0.00 | 19 | 1020.0 |
| 20260503174653 | 64 | 136 | 2.0 | 7.0 | 0.00 | 0.00 | 0.00 | 19 | 1020.1 |
| 20260503174151 | 65 | 178 | 2.0 | 7.0 | 0.00 | 0.00 | 0.00 | 22 | 1020.3 |
| 20260503173651 | 65 | 169 | 1.0 | 7.0 | 0.00 | 0.00 | 0.00 | 17 | 1020.3 |
| 20260503173151 | 65 | 248 | 1.0 | 4.0 | 0.00 | 0.00 | 0.00 | 19 | 1020.5 |
| 20260503172156 | 65 | 151 | 0.0 | 2.0 | 0.00 | 0.00 | 0.00 | 18 | 1020.7 |
| 20260503171649 | 65 | 227 | 1.0 | 3.0 | 0.00 | 0.00 | 0.00 | 20 | 1021.0 |
| 20260503171143 | 65 | 227 | 1.0 | 3.0 | 0.00 | 0.00 | 0.00 | 19 | 1021.0 |
| 20260503170640 | 65 | 100 | 1.0 | 4.0 | 0.00 | 0.00 | 0.00 | 21 | 1021.1 |
| 20260503170136 | 64 | 161 | 1.0 | 6.0 | 0.00 | 0.00 | 0.00 | 19 | 1021.1 |
| 20260503160125 | 63 | 147 | 0.0 | 3.0 | 0.00 | 0.00 | 0.00 | 20 | 1021.7 |
| 20260503150621 | 61 | 150 | 1.0 | 3.0 | 0.00 | 0.00 | 0.00 | 24 | 1022.1 |
| 20260503140115 | 51 | 349 | 0.0 | 2.0 | 0.00 | 0.00 | 0.00 | 40 | 1022.3 |
| 20260503130611 | 43 | 155 | 1.0 | 4.0 | 0.00 | 0.00 | 0.00 | 54 | 1022.0 |
| 20260503130111 | 42 | 198 | 0.0 | 0.0 | 0.00 | 0.00 | 0.00 | 55 | 1022.0 |
| 20260503120109 | 34 | 277 | 0.0 | 0.0 | 0.00 | 0.00 | 0.00 | 57 | 1021.8 |
| 20260503110601 | 32 | 277 | 0.0 | 0.0 | 0.00 | 0.00 | 0.00 | 60 | 1021.5 |
| 20260503081510 | 35 | 277 | 0.0 | 0.0 | 0.00 | 0.00 | 0.00 | 60 | 1020.3 |
| 20260503081010 | 35 | 277 | 0.0 | 0.0 | 0.00 | 0.00 | 0.00 | 60 | 1020.3 |
| 20260503072504 | 37 | 277 | 0.0 | 0.0 | 0.00 | 0.00 | 0.00 | 59 | 1020.0 |
| 20260503072004 | 37 | 277 | 0.0 | 0.0 | 0.00 | 0.00 | 0.00 | 58 | 1020.1 |
| 20260503071502 | 37 | 277 | 0.0 | 0.0 | 0.00 | 0.00 | 0.00 | 58 | 1020.1 |
| 20260503071007 | 37 | 277 | 0.0 | 0.0 | 0.00 | 0.00 | 0.00 | 58 | 1020.0 |
| 20260503070504 | 37 | 277 | 0.0 | 0.0 | 0.00 | 0.00 | 0.00 | 58 | 1020.0 |
| 20260503054929 | 41 | 277 | 0.0 | 0.0 | 0.00 | 0.00 | 0.00 | 52 | 1020.2 |
| 20260503053928 | 42 | 277 | 0.0 | 0.0 | 0.00 | 0.00 | 0.00 | 51 | 1020.3 |
| 20260503052928 | 42 | 277 | 0.0 | 0.0 | 0.00 | 0.00 | 0.00 | 50 | 1020.4 |
| 20260503052436 | 42 | 277 | 0.0 | 0.0 | 0.00 | 0.00 | 0.00 | 50 | 1020.3 |
| 20260503051935 | 42 | 277 | 0.0 | 0.0 | 0.00 | 0.00 | 0.00 | 50 | 1020.4 |
| 20260503051431 | 42 | 277 | 0.0 | 0.0 | 0.00 | 0.00 | 0.00 | 50 | 1020.3 |
| 20260503050429 | 42 | 277 | 0.0 | 0.0 | 0.00 | 0.00 | 0.00 | 50 | 1020.3 |
| 20260503045429 | 42 | 276 | 0.0 | 0.0 | 0.00 | 0.00 | 0.00 | 50 | 1020.3 |
| 20260503044928 | 42 | 276 | 0.0 | 1.0 | 0.00 | 0.00 | 0.00 | 50 | 1020.3 |
| 20260503044427 | 42 | 277 | 0.0 | 1.0 | 0.00 | 0.00 | 0.00 | 50 | 1020.3 |
| 20260503043922 | 42 | 277 | 0.0 | 3.0 | 0.00 | 0.00 | 0.00 | 50 | 1020.3 |
| 20260503043422 | 42 | 277 | 0.0 | 3.0 | 0.00 | 0.00 | 0.00 | 50 | 1020.3 |
| 20260503042920 | 42 | 277 | 0.0 | 2.0 | 0.00 | 0.00 | 0.00 | 51 | 1020.4 |
| 20260503042420 | 42 | 286 | 0.0 | 1.0 | 0.00 | 0.00 | 0.00 | 51 | 1020.2 |
| 20260503041925 | 42 | 286 | 0.0 | 1.0 | 0.00 | 0.00 | 0.00 | 52 | 1020.1 |
| 20260503041418 | 42 | 286 | 0.0 | 1.0 | 0.00 | 0.00 | 0.00 | 53 | 1020.1 |
| 20260503040916 | 42 | 286 | 0.0 | 1.0 | 0.00 | 0.00 | 0.00 | 53 | 1019.9 |
| 20260503040415 | 42 | 286 | 0.0 | 1.0 | 0.00 | 0.00 | 0.00 | 54 | 1019.9 |
| 20260503035914 | 42 | 286 | 0.0 | 1.0 | 0.00 | 0.00 | 0.00 | 55 | 1019.9 |
| 20260503035411 | 42 | 286 | 0.0 | 1.0 | 0.00 | 0.00 | 0.00 | 57 | 1019.9 |
| 20260503034909 | 42 | 286 | 0.0 | 1.0 | 0.00 | 0.00 | 0.00 | 57 | 1020.0 |
| 20260503034407 | 42 | 286 | 0.0 | 1.0 | 0.00 | 0.00 | 0.00 | 57 | 1019.8 |
| 20260503033905 | 42 | 286 | 0.0 | 0.0 | 0.00 | 0.00 | 0.00 | 57 | 1020.0 |
| 20260503033401 | 42 | 286 | 0.0 | 0.0 | 0.00 | 0.00 | 0.00 | 57 | 1019.8 |
| 20260503032901 | 42 | 286 | 0.0 | 0.0 | 0.00 | 0.00 | 0.00 | 56 | 1019.9 |
| 20260503032401 | 42 | 286 | 0.0 | 0.0 | 0.00 | 0.00 | 0.00 | 56 | 1019.8 |
| 20260503031408 | 43 | 286 | 0.0 | 0.0 | 0.00 | 0.00 | 0.00 | 56 | 1019.8 |
| 20260503030903 | 43 | 286 | 0.0 | 0.0 | 0.00 | 0.00 | 0.00 | 56 | 1019.8 |
| 20260503030401 | 43 | 286 | 0.0 | 0.0 | 0.00 | 0.00 | 0.00 | 56 | 1019.8 |
| 20260503025901 | 43 | 286 | 0.0 | 0.0 | 0.00 | 0.00 | 0.00 | 56 | 1019.7 |
| 20260503025359 | 44 | 286 | 0.0 | 0.0 | 0.00 | 0.00 | 0.00 | 55 | 1019.6 |
| 20260503024859 | 44 | 286 | 0.0 | 0.0 | 0.00 | 0.00 | 0.00 | 55 | 1019.6 |
| 20260503024357 | 44 | 286 | 0.0 | 0.0 | 0.00 | 0.00 | 0.00 | 54 | 1019.5 |
| 20260503023856 | 44 | 286 | 0.0 | 0.0 | 0.00 | 0.00 | 0.00 | 53 | 1019.4 |
| 20260503022851 | 45 | 286 | 0.0 | 1.0 | 0.00 | 0.00 | 0.00 | 53 | 1019.2 |
| 20260503022349 | 45 | 286 | 0.0 | 1.0 | 0.00 | 0.00 | 0.00 | 53 | 1019.2 |
| 20260503021349 | 46 | 286 | 0.0 | 0.0 | 0.00 | 0.00 | 0.00 | 51 | 1019.1 |
| 20260503020847 | 46 | 286 | 0.0 | 0.0 | 0.00 | 0.00 | 0.00 | 51 | 1019.0 |
| 20260503020346 | 47 | 286 | 0.0 | 0.0 | 0.00 | 0.00 | 0.00 | 50 | 1019.0 |
| 20260503015843 | 47 | 286 | 0.0 | 0.0 | 0.00 | 0.00 | 0.00 | 49 | 1019.0 |
| 20260503014839 | 48 | 286 | 0.0 | 0.0 | 0.00 | 0.00 | 0.00 | 47 | 1018.9 |
| 20260503014344 | 48 | 286 | 0.0 | 0.0 | 0.00 | 0.00 | 0.00 | 47 | 1018.9 |
| 20260503013836 | 49 | 286 | 0.0 | 0.0 | 0.00 | 0.00 | 0.00 | 46 | 1018.7 |
| 20260503013334 | 49 | 286 | 0.0 | 0.0 | 0.00 | 0.00 | 0.00 | 45 | 1018.8 |
| 20260503012831 | 49 | 286 | 0.0 | 0.0 | 0.00 | 0.00 | 0.00 | 45 | 1018.6 |
| 20260503011828 | 50 | 286 | 0.0 | 0.0 | 0.00 | 0.00 | 0.00 | 44 | 1018.6 |
| 20260503011329 | 50 | 286 | 0.0 | 2.0 | 0.00 | 0.00 | 0.00 | 43 | 1018.5 |
| 20260503010828 | 50 | 286 | 0.0 | 2.0 | 0.00 | 0.00 | 0.00 | 42 | 1018.4 |
| 20260503010328 | 50 | 286 | 0.0 | 1.0 | 0.00 | 0.00 | 0.00 | 43 | 1018.4 |
| 20260503005828 | 51 | 286 | 0.0 | 1.0 | 0.00 | 0.00 | 0.00 | 42 | 1018.4 |
| 20260503005329 | 51 | 286 | 0.0 | 0.0 | 0.00 | 0.00 | 0.00 | 42 | 1018.3 |
| 20260503004329 | 51 | 286 | 0.0 | 1.0 | 0.00 | 0.00 | 0.00 | 41 | 1018.2 |
| 20260503003829 | 51 | 286 | 0.0 | 1.0 | 0.00 | 0.00 | 0.00 | 40 | 1018.2 |
| 20260503003335 | 51 | 279 | 0.0 | 3.0 | 0.00 | 0.00 | 0.00 | 40 | 1018.2 |
| 20260503002835 | 51 | 279 | 0.0 | 3.0 | 0.00 | 0.00 | 0.00 | 40 | 1018.1 |
| 20260503002335 | 51 | 283 | 0.0 | 2.0 | 0.00 | 0.00 | 0.00 | 39 | 1018.1 |
| 20260503001835 | 52 | 283 | 0.0 | 2.0 | 0.00 | 0.00 | 0.00 | 39 | 1018.1 |
| 20260503001335 | 52 | 283 | 0.0 | 2.0 | 0.00 | 0.00 | 0.00 | 39 | 1018.0 |
| 20260503000330 | 52 | 286 | 1.0 | 5.0 | 0.00 | 0.00 | 0.00 | 38 | 1018.0 |
| 20260502235828 | 52 | 258 | 1.0 | 5.0 | 0.00 | 0.00 | 0.00 | 37 | 1017.9 |
| 20260502235329 | 53 | 290 | 0.0 | 4.0 | 0.00 | 0.00 | 0.00 | 38 | 1017.8 |
| 20260502234829 | 53 | 301 | 1.0 | 4.0 | 0.00 | 0.00 | 0.00 | 38 | 1017.7 |
| 20260502233829 | 53 | 324 | 1.0 | 5.0 | 0.00 | 0.00 | 0.00 | 38 | 1017.5 |
| 20260502233323 | 53 | 242 | 1.0 | 3.0 | 0.00 | 0.00 | 0.00 | 37 | 1017.5 |
| 20260502232817 | 53 | 262 | 1.0 | 4.0 | 0.00 | 0.00 | 0.00 | 38 | 1017.6 |
| 20260502231805 | 53 | 299 | 1.0 | 3.0 | 0.00 | 0.00 | 0.00 | 37 | 1017.5 |
| 20260502231305 | 54 | 271 | 1.0 | 3.0 | 0.00 | 0.00 | 0.00 | 37 | 1017.6 |
| 20260502230803 | 54 | 265 | 1.0 | 4.0 | 0.00 | 0.00 | 0.00 | 37 | 1017.7 |
| 20260502230303 | 53 | 322 | 1.0 | 4.0 | 0.00 | 0.00 | 0.00 | 37 | 1017.7 |
| 20260502225802 | 54 | 271 | 1.0 | 3.0 | 0.00 | 0.00 | 0.00 | 38 | 1017.8 |
| 20260502224802 | 54 | 279 | 1.0 | 5.0 | 0.00 | 0.00 | 0.00 | 38 | 1017.7 |
| 20260502224301 | 54 | 275 | 1.0 | 5.0 | 0.00 | 0.00 | 0.00 | 38 | 1017.7 |
| 20260502223800 | 54 | 231 | 1.0 | 5.0 | 0.00 | 0.00 | 0.00 | 38 | 1017.7 |
| 20260502223301 | 54 | 346 | 1.0 | 3.0 | 0.00 | 0.00 | 0.00 | 38 | 1017.8 |
| 20260502222802 | 54 | 259 | 1.0 | 4.0 | 0.00 | 0.00 | 0.00 | 38 | 1017.8 |
| 20260502222300 | 54 | 299 | 1.0 | 4.0 | 0.00 | 0.00 | 0.00 | 38 | 1017.9 |
| 20260502221800 | 54 | 288 | 1.0 | 5.0 | 0.00 | 0.00 | 0.00 | 37 | 1018.0 |
| 20260502221301 | 54 | 300 | 1.0 | 5.0 | 0.00 | 0.00 | 0.00 | 37 | 1017.9 |
| 20260502220806 | 54 | 279 | 1.0 | 4.0 | 0.00 | 0.00 | 0.00 | 36 | 1017.9 |
| 20260502220301 | 54 | 275 | 1.0 | 4.0 | 0.00 | 0.00 | 0.00 | 37 | 1017.8 |
| 20260502215801 | 54 | 273 | 1.0 | 5.0 | 0.00 | 0.00 | 0.00 | 38 | 1017.8 |
| 20260502215301 | 54 | 308 | 1.0 | 5.0 | 0.00 | 0.00 | 0.00 | 37 | 1017.7 |
| 20260502214758 | 54 | 318 | 1.0 | 7.0 | 0.00 | 0.00 | 0.00 | 37 | 1017.6 |
| 20260502214253 | 54 | 263 | 2.0 | 7.0 | 0.00 | 0.00 | 0.00 | 36 | 1017.6 |
| 20260502213746 | 54 | 270 | 2.0 | 7.0 | 0.00 | 0.00 | 0.00 | 36 | 1017.7 |
| 20260502213245 | 55 | 241 | 1.0 | 7.0 | 0.00 | 0.00 | 0.00 | 36 | 1017.6 |
| 20260502212744 | 55 | 275 | 1.0 | 3.0 | 0.00 | 0.00 | 0.00 | 37 | 1017.5 |
| 20260502212244 | 55 | 309 | 1.0 | 4.0 | 0.00 | 0.00 | 0.00 | 37 | 1017.5 |
| 20260502211745 | 55 | 0 | 2.0 | 6.0 | 0.00 | 0.00 | 0.00 | 37 | 1017.6 |
| 20260502210740 | 56 | 281 | 1.0 | 5.0 | 0.00 | 0.00 | 0.00 | 36 | 1017.5 |
| 20260502205738 | 56 | 286 | 1.0 | 7.0 | 0.00 | 0.00 | 0.00 | 35 | 1017.5 |
| 20260502205239 | 56 | 323 | 1.0 | 7.0 | 0.00 | 0.00 | 0.00 | 35 | 1017.5 |
| 20260502204739 | 56 | 240 | 1.0 | 4.0 | 0.00 | 0.00 | 0.00 | 35 | 1017.4 |
| 20260502204239 | 56 | 255 | 1.0 | 4.0 | 0.00 | 0.00 | 0.00 | 35 | 1017.5 |
| 20260502203743 | 56 | 355 | 1.0 | 3.0 | 0.00 | 0.00 | 0.00 | 37 | 1017.7 |
| 20260502203237 | 55 | 298 | 1.0 | 5.0 | 0.00 | 0.00 | 0.00 | 37 | 1017.7 |
| 20260502202735 | 55 | 270 | 1.0 | 5.0 | 0.00 | 0.00 | 0.00 | 37 | 1017.7 |
| 20260502202235 | 55 | 313 | 1.0 | 3.0 | 0.00 | 0.00 | 0.00 | 37 | 1017.8 |
| 20260502201235 | 55 | 288 | 1.0 | 7.0 | 0.00 | 0.00 | 0.00 | 36 | 1017.8 |
| 20260502200735 | 55 | 258 | 1.0 | 5.0 | 0.00 | 0.00 | 0.00 | 38 | 1017.9 |
| 20260502200235 | 55 | 279 | 2.0 | 5.0 | 0.00 | 0.00 | 0.00 | 36 | 1017.9 |
| 20260502195736 | 55 | 227 | 2.0 | 4.0 | 0.00 | 0.00 | 0.00 | 35 | 1018.0 |
| 20260502195223 | 55 | 284 | 2.0 | 4.0 | 0.00 | 0.00 | 0.00 | 36 | 1018.0 |
| 20260502194717 | 55 | 300 | 2.0 | 7.0 | 0.00 | 0.00 | 0.00 | 36 | 1018.0 |
| 20260502194210 | 54 | 288 | 1.0 | 7.0 | 0.00 | 0.00 | 0.00 | 36 | 1018.0 |
| 20260502193709 | 54 | 283 | 2.0 | 6.0 | 0.00 | 0.00 | 0.00 | 36 | 1018.0 |
| 20260502193209 | 54 | 319 | 2.0 | 6.0 | 0.00 | 0.00 | 0.00 | 35 | 1017.9 |
| 20260502192709 | 54 | 263 | 1.0 | 6.0 | 0.00 | 0.00 | 0.00 | 35 | 1018.0 |
| 20260502192207 | 54 | 270 | 1.0 | 6.0 | 0.00 | 0.00 | 0.00 | 36 | 1018.0 |
| 20260502191713 | 54 | 276 | 1.0 | 4.0 | 0.00 | 0.00 | 0.00 | 37 | 1018.0 |
| 20260502191213 | 54 | 293 | 1.0 | 4.0 | 0.00 | 0.00 | 0.00 | 36 | 1018.0 |
| 20260502190705 | 54 | 210 | 2.0 | 4.0 | 0.00 | 0.00 | 0.00 | 36 | 1018.0 |
| 20260502185703 | 54 | 243 | 1.0 | 5.0 | 0.00 | 0.00 | 0.00 | 36 | 1018.1 |